Time;durP1;ratioP1;P1;durP2;ratioP2;P2;SDS_P1;SDS_P2;PMS_P1;PMS_P2;Temp;Humidity;BMP_temperature;BMP_pressure;BME280_temperature;BME280_humidity;BME280_pressure;Samples;Min_cycle;Max_cycle;Signal;HPM_P1;HPM_P2
2021/10/14 04:17:15;;;;;;;0.88;0.88;;;;;;;3.87;100.00;99863.56;5141748;23;20828;-72
2021/10/14 04:19:41;;;;;;;0.60;0.60;;;;;;;3.93;100.00;99863.72;4993289;28;20034;-72
2021/10/14 04:22:07;;;;;;;0.70;0.70;;;;;;;3.95;100.00;99879.97;4993141;28;20042;-71
2021/10/14 04:24:33;;;;;;;1.00;1.00;;;;;;;4.04;100.00;99871.66;4993319;28;20052;-71
2021/10/14 04:26:59;;;;;;;0.60;0.60;;;;;;;3.89;100.00;99866.16;4993114;28;20029;-71
2021/10/14 04:29:24;;;;;;;1.55;1.45;;;;;;;3.81;100.00;99868.50;5022123;23;20050;-70
2021/10/14 04:31:50;;;;;;;0.70;0.70;;;;;;;3.81;100.00;99871.06;4977121;28;20022;-71
2021/10/14 04:34:16;;;;;;;0.65;0.65;;;;;;;3.82;100.00;99871.13;4975861;28;20030;-70
2021/10/14 04:36:41;;;;;;;0.70;0.70;;;;;;;3.83;100.00;99874.56;4976789;28;20089;-70
2021/10/14 04:39:07;;;;;;;0.90;0.90;;;;;;;3.89;100.00;99871.28;4921332;28;20499;-71
2021/10/14 04:41:34;;;;;;;0.40;0.40;;;;;;;4.09;100.00;99870.94;4973864;28;20030;-71
2021/10/14 04:43:59;;;;;;;0.93;0.93;;;;;;;3.92;100.00;99871.38;4973242;28;20454;-69
2021/10/14 04:46:25;;;;;;;1.20;1.17;;;;;;;4.03;100.00;99864.81;4972833;28;20097;-70
2021/10/14 04:48:50;;;;;;;1.00;1.00;;;;;;;3.97;100.00;99865.53;4973047;28;20142;-72
2021/10/14 04:51:16;;;;;;;0.68;0.68;;;;;;;3.94;100.00;99864.56;4972656;28;20026;-72
2021/10/14 04:53:42;;;;;;;0.88;0.88;;;;;;;3.91;100.00;99869.59;4975830;28;20018;-70
2021/10/14 04:56:07;;;;;;;0.80;0.80;;;;;;;3.87;100.00;99858.44;4970454;28;20050;-70
2021/10/14 04:58:33;;;;;;;0.85;0.77;;;;;;;3.94;100.00;99872.25;4983548;28;20019;-70
2021/10/14 05:00:58;;;;;;;0.63;0.63;;;;;;;4.05;100.00;99864.00;4982245;28;20033;-70
2021/10/14 05:03:24;;;;;;;0.80;0.80;;;;;;;4.31;100.00;99859.53;4975031;28;20027;-71
2021/10/14 05:05:49;;;;;;;1.10;1.10;;;;;;;4.66;100.00;99854.38;4980787;28;20030;-70
2021/10/14 05:08:14;;;;;;;0.70;0.70;;;;;;;4.43;100.00;99865.78;4977206;28;20106;-70
2021/10/14 05:10:40;;;;;;;0.63;0.63;;;;;;;4.38;100.00;99869.13;4978239;28;20469;-69
2021/10/14 05:13:06;;;;;;;0.65;0.65;;;;;;;4.25;100.00;99863.63;4973068;28;20106;-69
2021/10/14 05:15:32;;;;;;;0.70;0.70;;;;;;;4.23;100.00;99868.75;4977656;28;20486;-70
2021/10/14 05:17:57;;;;;;;1.15;1.05;;;;;;;4.15;100.00;99870.22;4977027;28;20027;-70
2021/10/14 05:20:22;;;;;;;0.80;0.80;;;;;;;4.19;100.00;99856.66;4976752;28;20077;-70
2021/10/14 05:22:48;;;;;;;0.68;0.68;;;;;;;4.27;100.00;99860.28;4982507;28;20046;-70
2021/10/14 05:25:13;;;;;;;0.40;0.40;;;;;;;4.35;100.00;99853.66;4984081;28;20062;-69
2021/10/14 05:27:38;;;;;;;0.40;0.40;;;;;;;4.34;100.00;99857.03;4982636;28;20106;-70
2021/10/14 05:30:06;;;;;;;0.60;0.60;;;;;;;4.25;100.00;99856.81;4985606;28;20058;-70
2021/10/14 05:32:31;;;;;;;0.70;0.70;;;;;;;4.26;100.00;99861.13;4981644;28;20030;-70
2021/10/14 05:34:59;;;;;;;1.05;1.05;;;;;;;4.30;100.00;99850.13;4982064;28;20447;-70
2021/10/14 05:37:24;;;;;;;0.65;0.65;;;;;;;4.41;100.00;99858.06;4978155;28;20034;-70
2021/10/14 05:39:50;;;;;;;1.67;1.58;;;;;;;4.49;100.00;99856.53;4980505;28;20109;-71
2021/10/14 05:42:15;;;;;;;1.17;1.17;;;;;;;4.64;100.00;99851.78;4979015;28;20476;-71
2021/10/14 05:44:40;;;;;;;0.85;0.85;;;;;;;4.58;100.00;99855.88;4979672;28;20022;-70
2021/10/14 05:47:06;;;;;;;1.08;1.08;;;;;;;4.57;100.00;99854.16;4983687;28;20096;-70
2021/10/14 05:49:31;;;;;;;1.48;1.13;;;;;;;4.58;100.00;99861.03;4983551;28;20030;-70
2021/10/14 05:51:56;;;;;;;0.70;0.70;;;;;;;4.58;100.00;99846.50;4981566;28;20025;-70
2021/10/14 05:54:21;;;;;;;1.25;1.15;;;;;;;4.58;100.00;99851.63;4983563;28;20023;-71
2021/10/14 05:56:47;;;;;;;0.75;0.75;;;;;;;4.73;100.00;99850.25;4981808;28;20026;-71
2021/10/14 05:59:12;;;;;;;0.80;0.80;;;;;;;4.69;100.00;99848.44;4981376;28;20027;-71
2021/10/14 06:01:37;;;;;;;1.30;1.25;;;;;;;4.66;100.00;99844.13;4988813;28;20394;-71
2021/10/14 06:04:03;;;;;;;0.63;0.63;;;;;;;4.66;100.00;99849.25;4976603;28;20043;-70
2021/10/14 06:06:28;;;;;;;0.57;0.57;;;;;;;4.66;100.00;99848.38;4985955;28;20096;-71
2021/10/14 06:08:53;;;;;;;1.58;1.48;;;;;;;4.58;100.00;99861.88;4978637;28;20365;-71
2021/10/14 06:11:19;;;;;;;0.68;0.68;;;;;;;4.71;100.00;99857.91;4983338;28;20331;-70
2021/10/14 06:13:44;;;;;;;2.47;1.20;;;;;;;4.89;100.00;99855.78;4976058;28;20029;-70
2021/10/14 06:16:10;;;;;;;0.95;0.95;;;;;;;5.13;100.00;99863.13;4980302;28;20022;-71
2021/10/14 06:18:37;;;;;;;0.75;0.75;;;;;;;5.17;100.00;99853.78;4974739;28;20023;-71
2021/10/14 06:21:03;;;;;;;4.95;1.55;;;;;;;5.23;100.00;99853.94;4984013;28;20031;-70
2021/10/14 06:23:28;;;;;;;1.17;1.08;;;;;;;5.27;100.00;99853.16;4970404;28;20025;-70
2021/10/14 06:25:55;;;;;;;2.92;2.28;;;;;;;5.42;100.00;99850.03;4974944;28;20102;-71
2021/10/14 06:28:21;;;;;;;0.93;0.93;;;;;;;5.56;100.00;99857.97;4980576;28;20495;-70
2021/10/14 06:30:46;;;;;;;0.77;0.77;;;;;;;5.48;100.00;99857.00;4981753;28;20097;-71
2021/10/14 06:33:11;;;;;;;0.70;0.70;;;;;;;5.75;100.00;99860.06;4981127;28;20023;-71
2021/10/14 06:35:37;;;;;;;1.17;0.95;;;;;;;5.82;99.08;99856.78;4980631;28;20062;-71
2021/10/14 06:38:02;;;;;;;1.05;1.05;;;;;;;6.07;99.31;99845.25;4980970;28;20050;-71
2021/10/14 06:40:27;;;;;;;0.88;0.88;;;;;;;6.15;98.07;99855.69;4979566;28;20066;-70
2021/10/14 06:42:53;;;;;;;1.45;1.35;;;;;;;6.26;97.20;99859.31;4978291;28;20038;-71
2021/10/14 06:45:19;;;;;;;0.77;0.77;;;;;;;6.11;96.72;99859.06;4976002;28;20034;-71
2021/10/14 06:47:44;;;;;;;1.15;1.15;;;;;;;6.11;97.39;99853.91;4979647;28;20148;-70
2021/10/14 06:50:09;;;;;;;0.73;0.73;;;;;;;6.29;96.72;99851.66;4984543;28;20046;-70
2021/10/14 06:52:35;;;;;;;2.35;2.20;;;;;;;6.25;96.74;99849.88;4972940;28;20025;-70
2021/10/14 06:55:01;;;;;;;0.70;0.70;;;;;;;6.28;97.22;99856.75;4979527;28;20025;-70
2021/10/14 06:57:26;;;;;;;1.35;1.35;;;;;;;6.51;97.13;99862.28;4988973;28;20034;-70
2021/10/14 06:59:52;;;;;;;0.40;0.40;;;;;;;6.65;94.96;99859.06;4978311;28;20027;-71
2021/10/14 07:02:17;;;;;;;1.30;1.30;;;;;;;6.82;93.86;99856.75;4983703;28;20030;-70
2021/10/14 07:04:42;;;;;;;1.05;1.05;;;;;;;7.05;92.45;99857.06;4976397;28;21132;-70
2021/10/14 07:07:08;;;;;;;1.60;0.88;;;;;;;7.38;91.11;99854.06;4983458;28;20026;-71
2021/10/14 07:09:33;;;;;;;1.45;1.35;;;;;;;7.56;90.77;99862.88;4976087;28;20015;-70
2021/10/14 07:12:03;;;;;;;0.50;0.50;;;;;;;7.84;91.88;99859.75;4984906;28;20086;-70
2021/10/14 07:14:28;;;;;;;0.32;0.32;;;;;;;7.65;88.83;99862.97;4974901;28;20030;-70
2021/10/14 07:16:53;;;;;;;0.73;0.70;;;;;;;7.90;87.75;99870.13;4973590;28;20486;-71
2021/10/14 07:19:19;;;;;;;0.70;0.70;;;;;;;8.06;85.47;99865.13;4982526;28;20030;-70
2021/10/14 07:21:44;;;;;;;0.40;0.40;;;;;;;8.16;83.51;99872.94;4985224;28;20023;-70
2021/10/14 07:24:10;;;;;;;0.35;0.35;;;;;;;8.09;79.83;99872.91;4986852;28;20031;-70
2021/10/14 07:26:35;;;;;;;0.82;0.82;;;;;;;8.27;82.19;99864.44;4977950;28;20054;-70
2021/10/14 07:29:02;;;;;;;0.40;0.40;;;;;;;8.40;80.61;99872.34;4983590;28;20113;-71
2021/10/14 07:31:28;;;;;;;0.63;0.63;;;;;;;8.22;81.61;99877.34;4976576;28;20027;-71
2021/10/14 07:33:53;;;;;;;0.40;0.40;;;;;;;8.33;82.11;99874.84;4980727;28;20368;-71
2021/10/14 07:36:19;;;;;;;0.35;0.35;;;;;;;8.65;83.35;99867.34;4980686;28;20014;-71
2021/10/14 07:38:44;;;;;;;0.80;0.80;;;;;;;8.41;79.92;99879.25;4980243;28;20066;-71
2021/10/14 07:41:10;;;;;;;0.50;0.50;;;;;;;8.64;79.72;99870.81;4979231;28;20022;-70
2021/10/14 07:43:35;;;;;;;2.13;1.75;;;;;;;8.73;79.18;99870.88;4973578;28;20023;-71
2021/10/14 07:46:01;;;;;;;0.30;0.30;;;;;;;8.90;77.71;99874.44;4981903;28;20031;-71
2021/10/14 07:48:26;;;;;;;0.30;0.30;;;;;;;8.52;81.72;99886.22;4974818;28;20027;-70
2021/10/14 07:50:53;;;;;;;0.40;0.40;;;;;;;8.83;82.61;99871.81;4980237;28;20027;-71
2021/10/14 07:53:19;;;;;;;1.15;1.13;;;;;;;9.16;75.69;99881.50;4980495;28;20023;-71
2021/10/14 07:55:46;;;;;;;0.68;0.68;;;;;;;9.09;75.89;99879.72;4978993;28;20031;-71
2021/10/14 07:58:12;;;;;;;0.57;0.50;;;;;;;8.43;79.63;99882.72;4978333;28;20038;-70
2021/10/14 08:00:38;;;;;;;2.15;0.63;;;;;;;8.70;78.35;99896.69;4977739;28;20041;-71
2021/10/14 08:03:04;;;;;;;0.47;0.47;;;;;;;8.53;78.51;99893.13;4978835;28;20085;-70
2021/10/14 08:05:30;;;;;;;0.85;0.85;;;;;;;8.67;79.40;99901.84;4977358;28;20014;-71
2021/10/14 08:07:55;;;;;;;0.52;0.52;;;;;;;8.33;79.26;99898.94;4978556;28;20023;-71
2021/10/14 08:10:21;;;;;;;0.40;0.40;;;;;;;8.79;79.65;99894.16;4983475;28;20361;-70
2021/10/14 08:12:46;;;;;;;0.60;0.60;;;;;;;9.58;76.71;99885.16;4979365;28;20105;-70
2021/10/14 08:15:11;;;;;;;0.50;0.50;;;;;;;9.66;73.86;99883.44;4973525;28;20030;-71
2021/10/14 08:17:37;;;;;;;0.75;0.75;;;;;;;10.09;73.53;99878.38;4976241;28;20027;-71
2021/10/14 08:20:07;;;;;;;0.40;0.40;;;;;;;10.44;71.91;99883.59;4981151;28;20119;-71
2021/10/14 08:22:36;;;;;;;0.50;0.50;;;;;;;9.50;71.38;99892.84;4971694;28;20019;-71
2021/10/14 08:25:05;;;;;;;1.33;1.23;;;;;;;9.98;71.47;99889.56;4979781;28;20049;-71
2021/10/14 08:27:30;;;;;;;1.25;0.73;;;;;;;9.29;74.16;99883.28;4982172;28;20046;-71
2021/10/14 08:29:56;;;;;;;0.40;0.40;;;;;;;9.37;74.32;99886.75;4981131;28;20050;-70
2021/10/14 08:32:21;;;;;;;0.32;0.32;;;;;;;9.82;72.28;99890.41;4975873;28;20085;-71
2021/10/14 08:34:46;;;;;;;0.60;0.60;;;;;;;10.14;70.64;99877.50;4982329;28;20030;-70
2021/10/14 08:37:11;;;;;;;1.13;1.08;;;;;;;10.59;70.07;99869.78;4973129;28;20114;-70
2021/10/14 08:39:37;;;;;;;0.40;0.40;;;;;;;13.24;62.23;99856.16;4982886;28;20022;-71
2021/10/14 08:42:02;;;;;;;0.60;0.60;;;;;;;14.53;55.85;99858.72;4975559;28;20050;-70
2021/10/14 08:44:28;;;;;;;0.43;0.43;;;;;;;14.47;54.85;99855.34;4976957;28;20149;-71
2021/10/14 08:46:54;;;;;;;0.40;0.40;;;;;;;14.91;55.32;99857.19;4979067;28;20022;-71
2021/10/14 08:49:20;;;;;;;3.35;1.20;;;;;;;15.25;53.44;99864.41;4976470;28;20376;-71
2021/10/14 08:51:46;;;;;;;0.75;0.75;;;;;;;14.78;55.55;99866.13;4972714;28;20022;-71
2021/10/14 08:54:11;;;;;;;0.30;0.30;;;;;;;16.61;50.74;99851.75;4975012;28;20023;-71
2021/10/14 08:56:44;;;;;;;0.22;0.22;;;;;;;16.73;50.02;99865.47;4976540;28;20478;-71
2021/10/14 08:59:12;;;;;;;0.38;0.38;;;;;;;17.38;46.77;99852.38;4974798;28;20019;-71
2021/10/14 09:01:40;;;;;;;0.30;0.30;;;;;;;17.77;46.60;99858.22;4984529;28;20070;-71
2021/10/14 09:04:14;;;;;;;0.80;0.52;;;;;;;17.85;45.65;99858.00;4974843;28;20023;-71
2021/10/14 09:06:40;;;;;;;0.90;0.90;;;;;;;16.77;46.80;99861.88;4972804;28;20019;-70
2021/10/14 09:09:06;;;;;;;0.32;0.32;;;;;;;15.82;48.75;99874.56;4974878;28;20460;-71
2021/10/14 09:11:31;;;;;;;0.73;0.73;;;;;;;15.98;49.28;99870.72;4983425;28;20030;-71
2021/10/14 09:14:01;;;;;;;0.32;0.32;;;;;;;15.21;54.05;99866.19;4972230;28;20027;-70
2021/10/14 09:16:40;;;;;;;0.73;0.47;;;;;;;15.45;53.86;99858.78;4977521;28;20036;-71
2021/10/14 09:19:13;;;;;;;0.10;0.10;;;;;;;15.86;51.54;99855.31;4986101;28;20031;-70
2021/10/14 09:21:56;;;;;;;0.20;0.20;;;;;;;16.29;49.97;99849.06;4971823;28;20024;-70
2021/10/14 09:24:31;;;;;;;0.35;0.35;;;;;;;16.22;48.58;99842.28;4979813;28;20026;-69
2021/10/14 09:27:01;;;;;;;0.45;0.45;;;;;;;16.39;50.82;99834.88;4978039;28;20023;-71
2021/10/14 09:29:28;;;;;;;0.70;0.70;;;;;;;15.68;50.57;99844.38;4972224;28;20077;-71
2021/10/14 09:31:55;;;;;;;0.32;0.32;;;;;;;16.95;48.59;99840.44;4976371;28;20026;-71
2021/10/14 09:34:25;;;;;;;0.55;0.55;;;;;;;16.60;48.07;99833.50;4975725;28;20035;-70
2021/10/14 09:36:51;;;;;;;5.18;0.95;;;;;;;15.85;50.27;99841.38;4977119;28;20383;-72
2021/10/14 09:39:16;;;;;;;0.43;0.43;;;;;;;16.61;49.22;99824.75;4974344;28;20023;-72
2021/10/14 09:41:43;;;;;;;0.40;0.40;;;;;;;17.55;45.18;99821.31;4974273;28;20028;-71
2021/10/14 09:44:14;;;;;;;0.20;0.20;;;;;;;15.67;52.19;99834.81;4972170;28;20431;-70
2021/10/14 09:46:41;;;;;;;0.85;0.68;;;;;;;16.88;49.87;99817.97;4984718;28;20492;-71
2021/10/14 09:49:08;;;;;;;0.17;0.17;;;;;;;14.17;53.33;99838.41;4978154;28;20364;-71
2021/10/14 09:51:35;;;;;;;7.22;1.00;;;;;;;16.33;50.39;99827.19;4984822;28;20503;-71
2021/10/14 09:54:01;;;;;;;0.47;0.47;;;;;;;18.61;44.02;99820.56;4977461;28;20476;-70
2021/10/14 09:56:28;;;;;;;0.77;0.77;;;;;;;18.93;43.05;99811.63;4978381;28;20094;-71
2021/10/14 09:58:53;;;;;;;0.25;0.25;;;;;;;19.14;43.86;99810.81;4976404;28;20046;-71
2021/10/14 10:01:19;;;;;;;0.22;0.22;;;;;;;21.05;38.56;99804.94;4977790;28;20031;-71
2021/10/14 10:03:47;;;;;;;0.22;0.22;;;;;;;21.34;37.48;99808.94;4972417;28;20042;-71
2021/10/14 10:06:14;;;;;;;0.30;0.22;;;;;;;24.02;33.97;99814.66;4982793;28;20135;-72
2021/10/14 10:08:42;;;;;;;0.77;0.65;;;;;;;24.07;32.77;99809.09;4985517;28;20027;-71
2021/10/14 10:11:15;;;;;;;1.10;0.50;;;;;;;23.27;34.22;99813.47;4974242;28;20038;-71
2021/10/14 10:13:45;;;;;;;0.30;0.30;;;;;;;23.89;31.30;99810.16;4921713;28;20030;-71
2021/10/14 10:16:21;;;;;;;0.43;0.43;;;;;;;25.20;32.24;99807.72;4982645;28;20164;-71
2021/10/14 10:18:48;;;;;;;0.22;0.22;;;;;;;23.38;34.04;99814.69;4980586;28;20077;-72
2021/10/14 10:21:28;;;;;;;0.65;0.63;;;;;;;23.02;34.61;99807.78;4978822;28;20096;-71
2021/10/14 10:23:54;;;;;;;0.40;0.30;;;;;;;23.66;33.82;99796.41;4977002;28;20023;-72
2021/10/14 10:26:34;;;;;;;0.28;0.28;;;;;;;23.49;34.41;99801.72;4978277;28;20029;-71
2021/10/14 10:29:02;;;;;;;0.43;0.40;;;;;;;24.90;32.04;99793.66;5024511;23;20706;-75
2021/10/14 10:31:46;;;;;;;0.28;0.28;;;;;;;26.00;29.54;99797.38;4993454;28;20487;-75
2021/10/14 10:35:06;;;;;;;1.48;0.38;;;;;;;27.36;27.92;99793.44;4988690;28;20030;-75
2021/10/14 10:38:06;;;;;;;0.10;0.10;;;;;;;26.75;28.79;99789.72;4966264;28;20026;-75
2021/10/14 10:40:32;;;;;;;0.10;0.10;;;;;;;27.53;26.79;99792.25;4991284;28;20054;-76
2021/10/14 10:43:04;;;;;;;0.25;0.25;;;;;;;25.76;28.38;99794.50;4987282;28;20018;-76
2021/10/14 10:45:31;;;;;;;0.40;0.40;;;;;;;24.29;29.99;99798.13;4991291;28;20038;-75
2021/10/14 10:47:59;;;;;;;0.30;0.30;;;;;;;24.46;30.02;99794.50;4992739;28;20376;-74
2021/10/14 10:50:28;;;;;;;0.30;0.30;;;;;;;21.78;34.83;99796.31;4989774;28;20456;-75
2021/10/14 10:53:03;;;;;;;0.38;0.38;;;;;;;23.91;31.03;99787.94;4986041;28;20029;-75
2021/10/14 10:55:28;;;;;;;1.27;0.25;;;;;;;23.75;32.10;99787.09;4988797;28;20057;-75
2021/10/14 10:57:55;;;;;;;0.87;0.87;;;;;;;23.22;32.08;99783.78;4988595;28;20474;-75
2021/10/14 11:00:22;;;;;;;0.45;0.45;;;;;;;20.08;37.17;99784.47;4987736;28;20351;-75
2021/10/14 11:03:06;;;;;;;0.10;0.10;;;;;;;23.05;33.42;99770.59;4992502;28;20105;-74
2021/10/14 11:05:49;;;;;;;0.38;0.38;;;;;;;25.79;29.20;99752.69;4987932;28;20018;-71
2021/10/14 11:08:36;;;;;;;0.98;0.80;;;;;;;22.26;33.54;99770.28;4990025;28;20368;-71
2021/10/14 11:11:07;;;;;;;0.22;0.22;;;;;;;25.37;29.12;99757.09;4986403;28;20134;-71
2021/10/14 11:13:36;;;;;;;0.43;0.43;;;;;;;21.78;33.41;99759.38;4993703;28;20050;-71
2021/10/14 11:16:03;;;;;;;1.83;0.95;;;;;;;20.46;36.94;99764.44;4994074;28;20162;-71
2021/10/14 11:18:30;;;;;;;0.35;0.35;;;;;;;19.89;38.31;99757.19;4984603;28;20134;-71
2021/10/14 11:21:06;;;;;;;0.45;0.45;;;;;;;19.91;37.36;99760.59;4991261;28;20058;-71
2021/10/14 11:23:42;;;;;;;0.17;0.17;;;;;;;18.41;39.40;99751.22;4985556;28;20395;-75
2021/10/14 11:26:19;;;;;;;1.33;1.23;;;;;;;18.24;41.23;99753.59;4985786;28;20019;-75
2021/10/14 11:28:49;;;;;;;0.30;0.30;;;;;;;17.75;42.74;99749.09;4980395;28;20041;-74
2021/10/14 11:31:34;;;;;;;2.53;0.50;;;;;;;17.63;44.06;99748.53;4994836;28;20417;-71
2021/10/14 11:34:04;;;;;;;0.28;0.28;;;;;;;17.07;45.13;99751.09;4990128;28;20042;-70
2021/10/14 11:36:29;;;;;;;0.45;0.45;;;;;;;17.01;44.78;99746.00;4994237;28;20015;-71
2021/10/14 11:39:00;;;;;;;1.17;0.65;;;;;;;17.48;45.21;99742.00;4990003;28;20510;-71
2021/10/14 11:41:26;;;;;;;0.50;0.50;;;;;;;15.86;48.27;99741.19;4985386;28;20053;-71
2021/10/14 11:44:03;;;;;;;1.40;0.93;;;;;;;15.80;46.92;99735.22;4987847;28;20448;-71
2021/10/14 11:46:32;;;;;;;0.43;0.43;;;;;;;16.64;47.66;99731.31;4982911;28;20057;-71
2021/10/14 11:49:11;;;;;;;0.45;0.45;;;;;;;16.96;44.94;99726.97;4990806;28;20022;-75
2021/10/14 11:51:37;;;;;;;0.63;0.63;;;;;;;16.52;47.51;99726.41;4979392;28;20109;-75
2021/10/14 11:54:05;;;;;;;0.10;0.10;;;;;;;17.23;45.25;99717.44;4989585;28;20122;-75
2021/10/14 11:56:32;;;;;;;1.13;1.02;;;;;;;16.62;45.72;99722.63;4987108;28;20032;-75
2021/10/14 11:59:02;;;;;;;0.47;0.47;;;;;;;16.51;47.25;99716.84;4986106;28;20022;-77
2021/10/14 12:01:30;;;;;;;0.30;0.30;;;;;;;15.89;50.90;99719.31;4988726;28;20022;-76
2021/10/14 12:03:55;;;;;;;0.60;0.60;;;;;;;16.50;48.28;99715.13;4993302;28;20029;-76
2021/10/14 12:06:22;;;;;;;0.32;0.32;;;;;;;16.83;46.32;99710.78;4993137;28;20039;-76
2021/10/14 12:08:48;;;;;;;0.40;0.40;;;;;;;16.75;46.71;99701.41;4983287;28;20105;-76
2021/10/14 12:11:21;;;;;;;0.43;0.43;;;;;;;15.42;48.79;99718.66;4987797;28;20030;-70
2021/10/14 12:13:58;;;;;;;0.65;0.65;;;;;;;15.06;50.87;99707.28;4986906;28;20029;-69
2021/10/14 12:16:24;;;;;;;0.60;0.60;;;;;;;15.00;52.08;99700.44;4991754;28;20399;-68
2021/10/14 12:18:50;;;;;;;0.50;0.50;;;;;;;15.22;49.95;99699.97;4987469;28;20049;-69
2021/10/14 12:21:35;;;;;;;0.47;0.47;;;;;;;15.17;50.07;99697.44;4992294;28;20018;-68
2021/10/14 12:24:14;;;;;;;0.73;0.73;;;;;;;15.17;49.70;99692.22;4992867;28;20088;-68
2021/10/14 12:26:42;;;;;;;0.43;0.43;;;;;;;16.00;49.56;99685.06;4987062;28;20038;-68
2021/10/14 12:29:30;;;;;;;1.00;0.85;;;;;;;15.84;48.41;99679.38;4984783;28;20034;-69
2021/10/14 12:32:22;;;;;;;0.65;0.65;;;;;;;16.36;47.81;99673.66;4985370;28;20482;-69
2021/10/14 12:34:58;;;;;;;2.30;1.20;;;;;;;16.63;47.98;99681.63;4985355;28;20391;-68
2021/10/14 12:37:31;;;;;;;0.20;0.20;;;;;;;16.68;47.03;99678.00;4987498;28;20105;-69
2021/10/14 12:40:18;;;;;;;0.30;0.30;;;;;;;16.89;47.39;99657.38;4992131;28;20026;-68
2021/10/14 12:45:41;;;;;;;0.70;0.52;;;;;;;16.83;47.08;99668.03;4989132;28;20026;-69
2021/10/14 12:53:45;;;;;;;0.65;0.65;;;;;;;16.58;49.20;99658.19;4985786;28;20022;-69
2021/10/14 12:56:13;;;;;;;0.30;0.30;;;;;;;16.50;48.25;99660.19;4990354;28;20057;-69
2021/10/14 12:58:38;;;;;;;0.30;0.30;;;;;;;16.22;48.36;99661.84;4984273;28;20033;-69
2021/10/14 13:01:07;;;;;;;0.65;0.65;;;;;;;16.27;50.45;99662.59;4986302;28;20034;-69
2021/10/14 13:03:34;;;;;;;0.28;0.28;;;;;;;16.27;50.01;99659.97;4991851;28;20113;-68
2021/10/14 13:06:00;;;;;;;0.30;0.30;;;;;;;16.28;49.40;99654.69;4992413;28;20037;-68
2021/10/14 13:08:28;;;;;;;1.65;1.13;;;;;;;16.34;49.58;99658.88;4992148;28;20133;-69
2021/10/14 13:10:53;;;;;;;0.22;0.22;;;;;;;15.41;51.75;99649.88;4991011;28;20428;-68
2021/10/14 13:13:19;;;;;;;0.30;0.30;;;;;;;16.03;51.87;99644.03;4991573;28;20109;-69
2021/10/14 13:15:44;;;;;;;0.20;0.20;;;;;;;16.31;51.02;99643.31;4991917;28;20491;-69
2021/10/14 13:18:10;;;;;;;0.22;0.22;;;;;;;15.37;53.53;99650.00;4987173;28;20026;-68
2021/10/14 13:20:36;;;;;;;0.13;0.13;;;;;;;15.43;53.89;99642.03;4990575;28;20034;-68
2021/10/14 13:23:03;;;;;;;0.20;0.20;;;;;;;14.68;54.50;99650.66;4981872;28;20026;-72
2021/10/14 13:25:29;;;;;;;0.20;0.20;;;;;;;15.55;53.97;99646.09;4990662;28;20525;-73
2021/10/14 13:27:54;;;;;;;0.55;0.55;;;;;;;15.86;51.83;99631.41;4987688;28;20035;-73
2021/10/14 13:30:20;;;;;;;0.30;0.30;;;;;;;14.96;54.39;99641.34;4991570;28;20124;-73
2021/10/14 13:32:45;;;;;;;0.40;0.40;;;;;;;15.11;53.44;99645.38;4984810;28;20049;-73
2021/10/14 13:35:11;;;;;;;0.30;0.30;;;;;;;15.03;53.17;99631.63;4989506;28;20445;-73
2021/10/14 13:37:37;;;;;;;0.50;0.50;;;;;;;14.90;55.55;99631.06;4992043;28;20369;-72
2021/10/14 13:40:03;;;;;;;0.15;0.15;;;;;;;15.58;53.58;99620.75;4993120;28;20077;-72
2021/10/14 13:42:33;;;;;;;0.35;0.35;;;;;;;15.67;53.98;99614.50;4988821;28;20030;-72
2021/10/14 13:45:01;;;;;;;0.40;0.40;;;;;;;15.02;55.55;99604.69;4991281;28;20424;-74
2021/10/14 13:47:27;;;;;;;0.20;0.20;;;;;;;15.67;53.96;99610.13;4987800;28;20030;-74
2021/10/14 13:49:52;;;;;;;0.40;0.40;;;;;;;15.65;54.30;99611.91;4990148;28;20552;-74
2021/10/14 13:52:17;;;;;;;0.20;0.20;;;;;;;14.83;55.37;99619.03;4991308;28;20088;-72
2021/10/14 13:54:43;;;;;;;43.08;0.95;;;;;;;14.58;58.01;99614.34;4993809;28;20015;-72
2021/10/14 13:57:08;;;;;;;0.20;0.20;;;;;;;14.38;58.07;99612.09;4994948;28;20483;-72
2021/10/14 13:59:33;;;;;;;1.27;1.05;;;;;;;14.69;59.11;99608.03;4989025;28;20026;-72
2021/10/14 14:01:59;;;;;;;0.22;0.22;;;;;;;14.00;58.82;99618.03;4990515;28;20491;-72
2021/10/14 14:04:24;;;;;;;0.25;0.25;;;;;;;14.39;58.21;99605.13;4992850;28;20494;-68
2021/10/14 14:06:49;;;;;;;0.77;0.77;;;;;;;14.28;57.91;99607.09;4995276;28;20029;-69
2021/10/14 14:09:15;;;;;;;0.20;0.20;;;;;;;14.46;59.35;99603.28;4984220;28;20011;-69
2021/10/14 14:11:43;;;;;;;0.30;0.28;;;;;;;13.76;59.56;99605.47;4990304;28;20033;-69
2021/10/14 14:14:11;;;;;;;0.52;0.52;;;;;;;13.51;59.30;99599.81;4992305;28;20033;-73
2021/10/14 14:16:37;;;;;;;0.20;0.20;;;;;;;14.01;60.41;99596.31;4983123;28;20022;-73
2021/10/14 14:19:03;;;;;;;1.25;1.10;;;;;;;14.24;59.68;99602.84;4983555;28;20026;-73
2021/10/14 14:21:31;;;;;;;0.30;0.30;;;;;;;14.28;60.16;99586.25;4989879;28;20044;-72
2021/10/14 14:23:58;;;;;;;0.30;0.30;;;;;;;13.89;58.96;99588.72;4991832;28;20022;-72
2021/10/14 14:26:24;;;;;;;1.02;0.57;;;;;;;13.87;60.07;99583.53;4992565;28;20841;-72
2021/10/14 14:28:49;;;;;;;0.35;0.35;;;;;;;13.88;60.57;99584.41;4990938;28;20097;-69
2021/10/14 14:31:15;;;;;;;0.20;0.20;;;;;;;13.39;61.68;99585.25;4988465;28;20479;-69
2021/10/14 14:33:40;;;;;;;1.85;0.70;;;;;;;12.99;62.74;99584.97;4989303;28;20114;-69
2021/10/14 14:36:06;;;;;;;0.20;0.20;;;;;;;12.81;62.86;99588.69;4994880;28;20237;-69
2021/10/14 14:38:31;;;;;;;0.40;0.40;;;;;;;12.65;65.51;99589.81;4993342;28;20022;-72
2021/10/14 14:40:56;;;;;;;2.17;0.90;;;;;;;12.73;64.20;99587.97;4989783;28;20595;-72
2021/10/14 14:43:22;;;;;;;0.22;0.22;;;;;;;12.93;63.53;99578.13;4989578;28;20018;-72
2021/10/14 14:45:47;;;;;;;0.65;0.65;;;;;;;12.75;63.00;99575.78;4990468;28;20069;-69
2021/10/14 14:48:12;;;;;;;0.47;0.47;;;;;;;13.15;61.74;99576.09;4988951;28;20026;-72
2021/10/14 14:50:44;;;;;;;0.38;0.38;;;;;;;12.93;62.02;99572.94;4988392;28;20025;-69
2021/10/14 14:53:11;;;;;;;0.20;0.20;;;;;;;13.22;60.76;99571.66;4988506;28;20027;-74
2021/10/14 14:55:36;;;;;;;1.90;1.33;;;;;;;13.40;61.00;99565.31;4992651;28;20099;-74
2021/10/14 14:58:02;;;;;;;0.22;0.22;;;;;;;13.40;60.06;99560.09;4994144;28;20479;-74
2021/10/14 15:00:27;;;;;;;0.17;0.17;;;;;;;13.53;59.06;99565.03;4994127;28;20409;-74
2021/10/14 15:02:52;;;;;;;0.28;0.28;;;;;;;13.49;59.84;99555.59;4994245;28;20376;-73
2021/10/14 15:05:18;;;;;;;0.20;0.20;;;;;;;13.52;59.97;99555.53;4991446;28;20110;-74
2021/10/14 15:07:44;;;;;;;0.60;0.60;;;;;;;13.53;60.46;99545.97;4989807;28;20068;-74
2021/10/14 15:10:10;;;;;;;0.20;0.20;;;;;;;13.72;61.00;99552.56;4989636;28;20475;-74
2021/10/14 15:12:35;;;;;;;0.55;0.30;;;;;;;13.51;62.24;99548.59;4993870;28;20030;-74
2021/10/14 15:15:00;;;;;;;1.67;0.70;;;;;;;13.57;62.29;99553.69;4991294;28;20049;-74
2021/10/14 15:17:26;;;;;;;0.40;0.40;;;;;;;13.52;63.44;99550.31;4980749;28;20061;-76
2021/10/14 15:19:51;;;;;;;0.22;0.22;;;;;;;13.36;62.96;99554.09;4986462;28;20023;-77
2021/10/14 15:22:16;;;;;;;0.30;0.30;;;;;;;13.26;63.61;99552.50;4988051;28;20411;-76
2021/10/14 15:24:42;;;;;;;0.30;0.30;;;;;;;13.28;64.06;99554.19;4990099;28;20029;-76
2021/10/14 15:27:12;;;;;;;1.35;1.30;;;;;;;13.24;63.16;99549.06;4991989;28;20029;-74
2021/10/14 15:29:37;;;;;;;0.73;0.73;;;;;;;13.14;63.07;99540.50;4989807;28;20066;-74
2021/10/14 15:32:06;;;;;;;0.60;0.45;;;;;;;12.99;63.21;99544.22;4988272;28;20093;-74
2021/10/14 15:34:32;;;;;;;0.30;0.30;;;;;;;13.06;63.61;99539.78;4990867;28;20109;-69
2021/10/14 15:36:57;;;;;;;0.25;0.25;;;;;;;13.11;62.92;99538.84;4986592;28;20611;-69
2021/10/14 15:39:22;;;;;;;0.30;0.30;;;;;;;13.00;64.21;99545.06;4997358;28;20388;-69
2021/10/14 15:41:49;;;;;;;3.63;1.17;;;;;;;12.99;64.10;99541.63;4983757;28;20081;-69
2021/10/14 15:44:16;;;;;;;1.15;1.15;;;;;;;12.89;65.47;99541.78;4993436;28;20044;-72
2021/10/14 15:46:42;;;;;;;0.57;0.57;;;;;;;12.83;64.80;99537.53;4993814;28;20069;-71
2021/10/14 15:49:07;;;;;;;0.40;0.40;;;;;;;12.82;65.57;99536.69;4991683;28;20066;-71
2021/10/14 15:51:33;;;;;;;0.75;0.63;;;;;;;12.61;68.58;99532.63;4989756;28;20569;-74
2021/10/14 15:53:58;;;;;;;0.52;0.52;;;;;;;12.54;70.75;99532.75;4986909;28;20022;-74
2021/10/14 15:56:23;;;;;;;0.47;0.47;;;;;;;12.51;69.65;99522.38;4990402;28;20026;-74
2021/10/14 15:58:49;;;;;;;0.52;0.52;;;;;;;12.42;71.33;99528.56;4993193;28;20072;-74
2021/10/14 16:01:14;;;;;;;13.98;2.33;;;;;;;12.22;71.66;99528.81;4995629;28;20019;-74